Time;durP1;ratioP1;P1;durP2;ratioP2;P2;SDS_P1;SDS_P2;PMS_P1;PMS_P2;Temp;Humidity;BMP_temperature;BMP_pressure;BME280_temperature;BME280_humidity;BME280_pressure;Samples;Min_cycle;Max_cycle;Signal;HPM_P1;HPM_P2
2024/01/23 00:01:43;;;;;;;40.55;6.65;;;;;;;-144.74;100.00;63161.41;4993001;28;20076;-73
2024/01/23 00:04:08;;;;;;;38.15;6.25;;;;;;;-144.74;100.00;63161.41;4980604;28;20037;-72
2024/01/23 00:06:33;;;;;;;38.78;6.90;;;;;;;-144.74;100.00;63161.41;5007755;28;20022;-72
2024/01/23 00:08:59;;;;;;;41.65;7.03;;;;;;;-144.74;100.00;63161.41;4994668;28;20100;-73
2024/01/23 00:11:24;;;;;;;41.63;7.63;;;;;;;-144.74;100.00;63161.41;4991383;28;20117;-72
2024/01/23 00:13:49;;;;;;;48.20;8.43;;;;;;;-144.74;100.00;63161.41;4992720;28;20116;-73
2024/01/23 00:16:15;;;;;;;42.28;6.75;;;;;;;-144.74;100.00;63161.41;5010511;28;20060;-72
2024/01/23 00:18:40;;;;;;;43.22;7.45;;;;;;;-144.74;100.00;63161.41;4992551;28;20033;-72
2024/01/23 00:21:05;;;;;;;45.53;6.32;;;;;;;-144.74;100.00;63161.41;4993720;28;20018;-72
2024/01/23 00:23:31;;;;;;;43.33;7.18;;;;;;;-144.74;100.00;63161.41;4994809;28;20425;-72
2024/01/23 00:25:56;;;;;;;32.22;6.00;;;;;;;-144.74;100.00;63161.41;4994478;28;20037;-72
2024/01/23 00:28:23;;;;;;;35.22;6.13;;;;;;;-144.74;100.00;63161.41;4991682;28;20045;-71
2024/01/23 00:30:51;;;;;;;44.05;6.03;;;;;;;-144.74;100.00;63161.41;4992244;28;20049;-72
2024/01/23 00:33:16;;;;;;;38.58;5.78;;;;;;;-144.74;100.00;63161.41;4995327;28;20026;-72
2024/01/23 00:35:42;;;;;;;46.97;6.53;;;;;;;-144.74;100.00;63161.41;4994584;28;20042;-74
2024/01/23 00:38:10;;;;;;;34.25;6.40;;;;;;;-144.74;100.00;63161.41;4995025;28;20025;-72
2024/01/23 00:40:35;;;;;;;49.97;7.45;;;;;;;-144.74;100.00;63161.41;4994074;28;20038;-71
2024/01/23 00:43:01;;;;;;;42.05;5.53;;;;;;;-144.74;100.00;63161.41;4992745;28;20026;-73
2024/01/23 00:45:26;;;;;;;37.60;6.68;;;;;;;-144.74;100.00;63161.41;4992034;28;20063;-72
2024/01/23 00:47:51;;;;;;;36.60;5.18;;;;;;;-144.74;100.00;63161.41;4994707;28;20088;-73
2024/01/23 00:50:17;;;;;;;40.53;6.93;;;;;;;-144.74;100.00;63161.41;4994126;28;20047;-74
2024/01/23 00:52:42;;;;;;;33.65;5.13;;;;;;;-144.74;100.00;63161.41;4994867;28;20034;-72
2024/01/23 00:55:08;;;;;;;33.67;5.95;;;;;;;-144.74;100.00;63161.41;4994364;28;20088;-72
2024/01/23 00:57:33;;;;;;;44.00;6.93;;;;;;;-144.74;100.00;63161.41;4994802;28;20042;-72
2024/01/23 01:00:00;;;;;;;33.58;6.00;;;;;;;-144.74;100.00;63161.41;4989693;28;20113;-72
2024/01/23 01:02:26;;;;;;;46.78;7.25;;;;;;;-144.74;100.00;63161.41;4994187;28;20061;-71
2024/01/23 01:04:54;;;;;;;47.33;6.35;;;;;;;-144.74;100.00;63161.41;4994196;28;20057;-73
2024/01/23 01:07:19;;;;;;;40.67;5.82;;;;;;;-144.74;100.00;63161.41;4994916;28;20753;-74
2024/01/23 01:09:44;;;;;;;31.20;5.80;;;;;;;-144.74;100.00;63161.41;4990510;28;20141;-73
2024/01/23 01:12:10;;;;;;;37.80;5.43;;;;;;;-144.74;100.00;63161.41;5009671;28;20022;-73
2024/01/23 01:14:37;;;;;;;24.02;4.53;;;;;;;-144.74;100.00;63161.41;4988007;28;20045;-74
2024/01/23 01:17:03;;;;;;;28.33;4.45;;;;;;;-144.74;100.00;63161.41;5010868;28;20075;-74
2024/01/23 01:19:28;;;;;;;26.58;3.22;;;;;;;-144.74;100.00;63161.41;4992623;28;20042;-74
2024/01/23 01:21:53;;;;;;;19.13;2.88;;;;;;;-144.74;100.00;63161.41;4990378;28;20203;-75
2024/01/23 01:24:19;;;;;;;26.33;3.97;;;;;;;-144.74;100.00;63161.41;5012620;28;20076;-73
2024/01/23 01:26:44;;;;;;;22.42;4.45;;;;;;;-144.74;100.00;63161.41;5016235;28;20435;-74
2024/01/23 01:29:09;;;;;;;19.05;3.70;;;;;;;-144.74;100.00;63161.41;4994359;28;20038;-74
2024/01/23 01:31:35;;;;;;;22.35;3.22;;;;;;;-144.74;100.00;63161.41;4993121;28;20113;-73
2024/01/23 01:34:00;;;;;;;32.20;3.45;;;;;;;-144.74;100.00;63161.41;4995700;28;20034;-74
2024/01/23 01:36:25;;;;;;;28.25;3.47;;;;;;;-144.74;100.00;63161.41;4997433;28;20120;-74
2024/01/23 01:38:51;;;;;;;28.77;3.45;;;;;;;-144.74;100.00;63161.41;4997804;28;20100;-74
2024/01/23 01:41:16;;;;;;;31.48;4.50;;;;;;;-144.74;100.00;63161.41;4998339;28;20025;-74
2024/01/23 01:43:42;;;;;;;29.40;5.22;;;;;;;-144.74;100.00;63161.41;4997094;28;20029;-74
2024/01/23 01:46:13;;;;;;;33.65;4.50;;;;;;;-144.74;100.00;63161.41;4997823;28;20085;-74
2024/01/23 01:48:40;;;;;;;16.60;2.97;;;;;;;-144.74;100.00;63161.41;4995392;28;20034;-73
2024/01/23 01:51:06;;;;;;;21.67;3.55;;;;;;;-144.74;100.00;63161.41;4996354;28;20481;-73
2024/01/23 01:53:33;;;;;;;30.63;5.57;;;;;;;-144.74;100.00;63161.41;4991454;28;20072;-73
2024/01/23 01:56:03;;;;;;;34.30;5.40;;;;;;;-144.74;100.00;63161.41;5015974;28;20038;-73
2024/01/23 01:58:30;;;;;;;35.78;4.38;;;;;;;-144.74;100.00;63161.41;4993859;28;20026;-73
2024/01/23 02:00:57;;;;;;;30.58;5.47;;;;;;;-144.74;100.00;63161.41;4995623;28;20060;-73
2024/01/23 02:03:22;;;;;;;27.42;4.22;;;;;;;-144.74;100.00;63161.41;4995195;28;20029;-73
2024/01/23 02:05:51;;;;;;;32.08;4.72;;;;;;;-144.74;100.00;63161.41;4993231;28;20030;-74
2024/01/23 02:08:16;;;;;;;23.30;4.72;;;;;;;-144.74;100.00;63161.41;4992671;28;20045;-73
2024/01/23 02:10:43;;;;;;;36.45;5.90;;;;;;;-144.74;100.00;63161.41;5011694;28;20509;-73
2024/01/23 02:13:11;;;;;;;32.67;5.00;;;;;;;-144.74;100.00;63161.41;4995989;28;20022;-73
2024/01/23 02:15:37;;;;;;;28.30;4.80;;;;;;;-144.74;100.00;63161.41;4996602;28;20049;-73
2024/01/23 02:18:05;;;;;;;29.27;4.38;;;;;;;-144.74;100.00;63161.41;4991831;28;20026;-73
2024/01/23 02:20:30;;;;;;;31.50;4.45;;;;;;;-144.74;100.00;63161.41;4990956;28;20022;-73
2024/01/23 02:22:56;;;;;;;41.08;6.97;;;;;;;-144.74;100.00;63161.41;4997642;28;20028;-72
2024/01/23 02:25:22;;;;;;;30.70;5.00;;;;;;;-144.74;100.00;63161.41;4995302;28;20080;-73
2024/01/23 02:27:47;;;;;;;32.70;4.93;;;;;;;-144.74;100.00;63161.41;4995582;28;20026;-72
2024/01/23 02:30:12;;;;;;;27.85;4.93;;;;;;;-144.74;100.00;63161.41;4994308;28;20428;-72
2024/01/23 02:32:45;;;;;;;30.02;5.03;;;;;;;-144.74;100.00;63161.41;4996174;28;20033;-75
2024/01/23 02:35:11;;;;;;;35.28;5.50;;;;;;;-144.74;100.00;63161.41;4995151;28;20030;-73
2024/01/23 02:37:37;;;;;;;37.80;4.93;;;;;;;-144.74;100.00;63161.41;4997015;28;20026;-70
2024/01/23 02:40:03;;;;;;;34.58;6.03;;;;;;;-144.74;100.00;63161.41;4994987;28;20018;-75
2024/01/23 02:42:29;;;;;;;34.83;4.97;;;;;;;-144.74;100.00;63161.41;4996565;28;20080;-72
2024/01/23 02:44:54;;;;;;;30.08;4.20;;;;;;;-144.74;100.00;63161.41;4993945;28;20030;-73
2024/01/23 02:47:20;;;;;;;43.92;6.53;;;;;;;-144.74;100.00;63161.41;4993088;28;20022;-73
2024/01/23 02:49:46;;;;;;;35.65;6.55;;;;;;;-144.74;100.00;63161.41;4993894;28;20099;-72
2024/01/23 02:52:11;;;;;;;37.30;5.40;;;;;;;-144.74;100.00;63161.41;4996843;28;20030;-72
2024/01/23 02:54:36;;;;;;;39.22;4.78;;;;;;;-144.74;100.00;63161.41;4996118;28;20084;-75
2024/01/23 02:57:02;;;;;;;28.88;5.40;;;;;;;-144.74;100.00;63161.41;4996323;28;20018;-72
2024/01/23 02:59:27;;;;;;;45.20;5.78;;;;;;;-144.74;100.00;63161.41;4994942;28;20033;-73
2024/01/23 03:01:52;;;;;;;38.55;5.95;;;;;;;-144.74;100.00;63161.41;4993315;28;20014;-74
2024/01/23 03:04:18;;;;;;;46.28;6.30;;;;;;;-144.74;100.00;63161.41;4993388;28;20022;-73
2024/01/23 03:06:43;;;;;;;30.58;4.00;;;;;;;-144.74;100.00;63161.41;4993618;28;20034;-74
2024/01/23 03:09:13;;;;;;;34.85;5.57;;;;;;;-144.74;100.00;63161.41;5002799;28;20107;-73
2024/01/23 03:11:39;;;;;;;34.05;5.40;;;;;;;-144.74;100.00;63161.41;4994085;28;20030;-73
2024/01/23 03:14:04;;;;;;;53.83;7.18;;;;;;;-144.74;100.00;63161.41;4995712;28;20164;-72
2024/01/23 03:16:30;;;;;;;49.35;6.22;;;;;;;-144.74;100.00;63161.41;5010333;28;20078;-73
2024/01/23 03:18:55;;;;;;;50.60;5.72;;;;;;;-144.74;100.00;63161.41;4991577;28;20032;-73
2024/01/23 03:21:20;;;;;;;44.42;5.40;;;;;;;-144.74;100.00;63161.41;4996029;28;20022;-73
2024/01/23 03:23:48;;;;;;;31.50;5.93;;;;;;;-144.74;100.00;63161.41;4995465;28;20021;-73
2024/01/23 03:26:13;;;;;;;38.45;5.53;;;;;;;-144.74;100.00;63161.41;4995579;28;20050;-72
2024/01/23 03:28:39;;;;;;;37.03;4.75;;;;;;;-144.74;100.00;63161.41;4994214;28;20065;-73
2024/01/23 03:31:04;;;;;;;37.15;5.47;;;;;;;-144.74;100.00;63161.41;4994622;28;20018;-73
2024/01/23 03:33:30;;;;;;;44.15;6.60;;;;;;;-144.74;100.00;63161.41;4995948;28;20100;-73
2024/01/23 03:35:55;;;;;;;37.60;6.03;;;;;;;-144.74;100.00;63161.41;5007155;28;20053;-73
2024/01/23 03:38:21;;;;;;;45.83;5.53;;;;;;;-144.74;100.00;63161.41;4995698;28;20028;-73
2024/01/23 03:40:46;;;;;;;33.60;6.35;;;;;;;-144.74;100.00;63161.41;4993599;28;20133;-73
2024/01/23 03:43:12;;;;;;;37.80;5.97;;;;;;;-144.74;100.00;63161.41;4995682;28;20061;-73
2024/01/23 03:45:37;;;;;;;38.20;6.10;;;;;;;-144.74;100.00;63161.41;4994167;28;20038;-73
2024/01/23 03:48:03;;;;;;;40.58;5.90;;;;;;;-144.74;100.00;63161.41;4995639;28;20549;-73
2024/01/23 03:50:29;;;;;;;42.97;5.65;;;;;;;-144.74;100.00;63161.41;4994874;28;20022;-73
2024/01/23 03:52:55;;;;;;;45.20;6.32;;;;;;;-144.74;100.00;63161.41;4992159;28;20029;-73
2024/01/23 03:55:21;;;;;;;46.90;6.22;;;;;;;-144.74;100.00;63161.41;4994400;28;20026;-73
2024/01/23 03:57:46;;;;;;;45.53;8.50;;;;;;;-144.74;100.00;63161.41;4990620;28;20033;-73
2024/01/23 04:00:12;;;;;;;38.25;4.78;;;;;;;-144.74;100.00;63161.41;5007959;28;20099;-73
2024/01/23 04:02:38;;;;;;;52.95;7.03;;;;;;;-144.74;100.00;63161.41;4995061;28;20022;-74
2024/01/23 04:05:04;;;;;;;35.83;5.25;;;;;;;-144.74;100.00;63161.41;5012071;28;20042;-73
2024/01/23 04:07:31;;;;;;;60.22;7.57;;;;;;;-144.74;100.00;63161.41;4995320;28;20037;-73
2024/01/23 04:09:56;;;;;;;47.28;8.02;;;;;;;-144.74;100.00;63161.41;4994584;28;20034;-73
2024/01/23 04:12:21;;;;;;;38.97;6.25;;;;;;;-144.74;100.00;63161.41;4993448;28;20032;-73
2024/01/23 04:14:47;;;;;;;54.40;6.13;;;;;;;-144.74;100.00;63161.41;4992513;28;20068;-75
2024/01/23 04:17:16;;;;;;;40.83;6.20;;;;;;;-144.74;100.00;63161.41;5008514;28;20029;-72
2024/01/23 04:19:42;;;;;;;44.13;6.78;;;;;;;-144.74;100.00;63161.41;4994366;28;20038;-73
2024/01/23 04:22:07;;;;;;;48.50;6.47;;;;;;;-144.74;100.00;63161.41;4991680;28;20129;-72
2024/01/23 04:24:36;;;;;;;35.92;5.85;;;;;;;-144.74;100.00;63161.41;4994111;28;20042;-74
2024/01/23 04:27:03;;;;;;;65.57;8.35;;;;;;;-144.74;100.00;63161.41;4990975;28;20083;-74
2024/01/23 04:29:29;;;;;;;52.35;8.43;;;;;;;-144.74;100.00;63161.41;4991340;28;20077;-74
2024/01/23 04:31:54;;;;;;;48.17;7.60;;;;;;;-144.74;100.00;63161.41;4995044;28;20034;-73
2024/01/23 04:34:19;;;;;;;52.20;7.68;;;;;;;-144.74;100.00;63161.41;5010238;28;20088;-71
2024/01/23 04:36:45;;;;;;;46.90;6.65;;;;;;;-144.74;100.00;63161.41;4995200;28;20034;-74
2024/01/23 04:39:10;;;;;;;45.70;6.15;;;;;;;-144.74;100.00;63161.41;4994147;28;20105;-73
2024/01/23 04:41:38;;;;;;;38.70;5.72;;;;;;;-144.74;100.00;63161.41;4994792;28;20025;-74
2024/01/23 04:44:04;;;;;;;52.60;7.43;;;;;;;-144.74;100.00;63161.41;4992390;28;20041;-73
2024/01/23 04:46:29;;;;;;;42.35;7.82;;;;;;;-144.74;100.00;63161.41;4991883;28;20029;-75
2024/01/23 04:48:55;;;;;;;51.75;8.73;;;;;;;-144.74;100.00;63161.41;5011081;28;20094;-73
2024/01/23 04:51:20;;;;;;;57.60;6.75;;;;;;;-144.74;100.00;63161.41;4991333;28;20038;-72
2024/01/23 04:53:45;;;;;;;51.17;8.98;;;;;;;-144.74;100.00;63161.41;4989785;28;20042;-73
2024/01/23 04:56:11;;;;;;;64.30;9.30;;;;;;;-144.74;100.00;63161.41;4992456;28;20022;-73
2024/01/23 04:58:36;;;;;;;67.82;9.77;;;;;;;-144.74;100.00;63161.41;4993361;28;20115;-73
2024/01/23 05:01:03;;;;;;;41.08;6.35;;;;;;;-144.74;100.00;63161.41;5008757;28;20085;-73
2024/01/23 05:03:28;;;;;;;54.83;7.18;;;;;;;-144.74;100.00;63161.41;4994147;28;20025;-74
2024/01/23 05:05:53;;;;;;;56.20;6.95;;;;;;;-144.74;100.00;63161.41;5011255;28;20049;-73
2024/01/23 05:08:19;;;;;;;52.60;8.63;;;;;;;-144.74;100.00;63161.41;4994570;28;20022;-75
2024/01/23 05:10:44;;;;;;;37.45;5.75;;;;;;;-144.74;100.00;63161.41;4993715;28;20056;-74
2024/01/23 05:13:09;;;;;;;52.92;8.65;;;;;;;-144.74;100.00;63161.41;5008817;28;20026;-74
2024/01/23 05:15:37;;;;;;;54.78;7.47;;;;;;;-144.74;100.00;63161.41;4994426;28;20029;-74
2024/01/23 05:18:06;;;;;;;52.63;9.23;;;;;;;-144.74;100.00;63161.41;4994108;28;20405;-75
2024/01/23 05:20:35;;;;;;;51.97;9.13;;;;;;;-144.74;100.00;63161.41;4991832;28;20110;-75
2024/01/23 05:23:04;;;;;;;48.22;8.98;;;;;;;-144.74;100.00;63161.41;5008372;28;20449;-75
2024/01/23 05:25:29;;;;;;;50.78;7.60;;;;;;;-144.74;100.00;63161.41;4990082;28;20038;-74
2024/01/23 05:27:55;;;;;;;54.55;9.65;;;;;;;-144.74;100.00;63161.41;4994824;28;20083;-75
2024/01/23 05:30:21;;;;;;;59.92;8.13;;;;;;;-144.74;100.00;63161.41;4992292;28;20034;-74
2024/01/23 05:32:50;;;;;;;44.50;7.22;;;;;;;-144.74;100.00;63161.41;4991234;28;20037;-74
2024/01/23 05:35:16;;;;;;;73.88;8.73;;;;;;;-144.74;100.00;63161.41;4992122;28;20037;-75
2024/01/23 05:37:42;;;;;;;58.35;8.73;;;;;;;-144.74;100.00;63161.41;4993940;28;20034;-75
2024/01/23 05:40:11;;;;;;;62.40;7.88;;;;;;;-144.74;100.00;63161.41;4992229;28;20022;-75
2024/01/23 05:42:37;;;;;;;62.13;10.05;;;;;;;-144.74;100.00;63161.41;4990923;28;20109;-76
2024/01/23 05:45:03;;;;;;;46.58;7.63;;;;;;;-144.74;100.00;63161.41;5009728;28;20138;-76
2024/01/23 05:47:29;;;;;;;87.50;9.63;;;;;;;-144.74;100.00;63161.41;5009902;28;20030;-74
2024/01/23 05:49:54;;;;;;;65.57;7.97;;;;;;;-144.74;100.00;63161.41;4992875;28;20041;-75
2024/01/23 05:52:19;;;;;;;62.90;7.50;;;;;;;-144.74;100.00;63161.41;5010924;28;20034;-75
2024/01/23 05:54:45;;;;;;;49.42;6.68;;;;;;;-144.74;100.00;63161.41;4988467;28;20041;-75
2024/01/23 05:57:11;;;;;;;63.35;8.05;;;;;;;-144.74;100.00;63161.41;4991873;28;20069;-74
2024/01/23 05:59:36;;;;;;;71.05;12.23;;;;;;;-144.74;100.00;63161.41;4992244;28;20033;-75
2024/01/23 06:02:03;;;;;;;62.60;8.13;;;;;;;-144.74;100.00;63161.41;5011689;28;20543;-76
2024/01/23 06:04:29;;;;;;;67.53;8.98;;;;;;;-144.74;100.00;63161.41;4991417;28;20051;-74
2024/01/23 06:06:55;;;;;;;60.25;10.18;;;;;;;-144.74;100.00;63161.41;4992343;28;20127;-76
2024/01/23 06:09:20;;;;;;;70.43;9.23;;;;;;;-144.74;100.00;63161.41;4991626;28;20128;-76
2024/01/23 06:11:46;;;;;;;82.43;11.27;;;;;;;-144.74;100.00;63161.41;4997182;28;20109;-76
2024/01/23 06:14:11;;;;;;;83.57;10.05;;;;;;;-144.74;100.00;63161.41;4992817;28;20054;-76
2024/01/23 06:16:38;;;;;;;63.47;8.00;;;;;;;-144.74;100.00;63161.41;5009196;28;20069;-76
2024/01/23 06:19:06;;;;;;;70.20;10.73;;;;;;;-144.74;100.00;63161.41;4993959;28;20042;-77
2024/01/23 06:21:32;;;;;;;60.90;10.20;;;;;;;-144.74;100.00;63161.41;4995468;28;20282;-77
2024/01/23 06:24:00;;;;;;;56.72;10.35;;;;;;;-144.74;100.00;63161.41;4995212;28;20038;-76
2024/01/23 06:26:25;;;;;;;79.93;11.05;;;;;;;-144.74;100.00;63161.41;4995169;28;20171;-75
2024/01/23 06:28:55;;;;;;;64.50;10.30;;;;;;;-144.74;100.00;63161.41;5010758;28;20405;-74
2024/01/23 06:31:30;;;;;;;70.47;9.25;;;;;;;-144.74;100.00;63161.41;4994663;28;20050;-75
2024/01/23 06:33:56;;;;;;;79.05;10.18;;;;;;;-144.74;100.00;63161.41;4995086;28;20052;-73
2024/01/23 06:36:24;;;;;;;84.03;10.02;;;;;;;-144.74;100.00;63161.41;4996753;28;20030;-74
2024/01/23 06:38:50;;;;;;;62.88;8.23;;;;;;;-144.74;100.00;63161.41;5009248;28;20029;-75
2024/01/23 06:41:15;;;;;;;89.22;11.00;;;;;;;-144.74;100.00;63161.41;4995463;28;20018;-75
2024/01/23 06:43:40;;;;;;;66.20;8.93;;;;;;;-144.74;100.00;63161.41;4991224;28;20026;-75
2024/01/23 06:46:15;;;;;;;66.05;10.65;;;;;;;-144.74;100.00;63161.41;4996881;28;20075;-73
2024/01/23 06:48:40;;;;;;;65.38;9.77;;;;;;;-144.74;100.00;63161.41;4990161;28;20033;-76
2024/01/23 06:51:06;;;;;;;67.40;11.15;;;;;;;-144.74;100.00;63161.41;4993726;28;20018;-76
2024/01/23 06:53:34;;;;;;;66.75;8.68;;;;;;;-144.74;100.00;63161.41;4997342;28;20029;-76
2024/01/23 06:55:59;;;;;;;60.33;9.13;;;;;;;-144.74;100.00;63161.41;4996377;28;20041;-76
2024/01/23 06:58:25;;;;;;;76.78;10.07;;;;;;;-144.74;100.00;63161.41;4995896;28;20136;-76
2024/01/23 07:00:50;;;;;;;81.55;10.88;;;;;;;-144.74;100.00;63161.41;4993597;28;20511;-76
2024/01/23 07:03:15;;;;;;;64.53;9.10;;;;;;;-144.74;100.00;63161.41;5007182;28;20544;-75
2024/01/23 07:05:41;;;;;;;70.57;11.18;;;;;;;-144.74;100.00;63161.41;5013055;28;20045;-75
2024/01/23 07:08:06;;;;;;;70.50;9.40;;;;;;;-144.74;100.00;63161.41;4996305;28;20034;-75
2024/01/23 07:10:31;;;;;;;73.72;10.90;;;;;;;-144.74;100.00;63161.41;4991072;28;20509;-76
2024/01/23 07:12:57;;;;;;;77.70;9.60;;;;;;;-144.74;100.00;63161.41;4993058;28;20079;-75
2024/01/23 07:15:22;;;;;;;56.42;9.48;;;;;;;-144.74;100.00;63161.41;4991821;28;20038;-76
2024/01/23 07:17:48;;;;;;;67.15;9.05;;;;;;;-144.74;100.00;63161.41;4994700;28;20029;-76
2024/01/23 07:20:16;;;;;;;75.93;10.98;;;;;;;-144.74;100.00;63161.41;4993866;28;20113;-75
2024/01/23 07:22:41;;;;;;;73.10;10.57;;;;;;;-144.74;100.00;63161.41;4992221;28;20027;-75
2024/01/23 07:25:07;;;;;;;72.93;10.60;;;;;;;-144.74;100.00;63161.41;4994522;28;20120;-76
2024/01/23 07:27:32;;;;;;;73.50;12.18;;;;;;;-144.74;100.00;63161.41;4993968;28;20076;-75
2024/01/23 07:29:58;;;;;;;95.93;11.48;;;;;;;-144.74;100.00;63161.41;4991808;28;20037;-76
2024/01/23 07:32:24;;;;;;;88.85;14.30;;;;;;;-144.74;100.00;63161.41;4993683;28;20026;-76
2024/01/23 07:34:49;;;;;;;70.85;9.02;;;;;;;-144.74;100.00;63161.41;5010115;28;20048;-75
2024/01/23 07:37:15;;;;;;;87.97;13.27;;;;;;;-144.74;100.00;63161.41;4995307;28;20028;-76
2024/01/23 07:39:40;;;;;;;67.43;10.18;;;;;;;-144.74;100.00;63161.41;4994932;28;20037;-75
2024/01/23 07:42:06;;;;;;;82.70;11.68;;;;;;;-144.74;100.00;63161.41;4995614;28;20053;-76
2024/01/23 07:44:38;;;;;;;85.13;11.68;;;;;;;-144.74;100.00;63161.41;4990551;28;20045;-75
2024/01/23 07:47:03;;;;;;;65.88;10.52;;;;;;;-144.74;100.00;63161.41;5010364;28;20025;-75
2024/01/23 07:49:29;;;;;;;63.25;8.60;;;;;;;-144.74;100.00;63161.41;4990685;28;20061;-76
2024/01/23 07:51:55;;;;;;;102.22;12.25;;;;;;;-144.74;100.00;63161.41;4993789;28;20076;-75
2024/01/23 07:54:20;;;;;;;70.38;11.30;;;;;;;-144.74;100.00;63161.41;4994419;28;20113;-74
2024/01/23 07:56:45;;;;;;;73.38;12.60;;;;;;;-144.74;100.00;63161.41;4992440;28;20083;-76
2024/01/23 07:59:11;;;;;;;99.88;11.85;;;;;;;-144.74;100.00;63161.41;4991489;28;20064;-75
2024/01/23 08:01:37;;;;;;;76.50;13.48;;;;;;;-144.74;100.00;63161.41;4994874;28;20037;-77
2024/01/23 08:04:05;;;;;;;69.20;11.10;;;;;;;-144.74;100.00;63161.41;4985237;28;20050;-75
2024/01/23 08:06:33;;;;;;;70.68;10.32;;;;;;;-144.74;100.00;63161.41;4994840;28;20056;-76
2024/01/23 08:08:58;;;;;;;76.35;11.68;;;;;;;-144.74;100.00;63161.41;4992628;28;20038;-74
2024/01/23 08:11:23;;;;;;;71.90;11.23;;;;;;;-144.74;100.00;63161.41;4995283;28;20026;-74
2024/01/23 08:13:52;;;;;;;78.88;11.77;;;;;;;-144.74;100.00;63161.41;5009932;28;20022;-74
2024/01/23 08:16:17;;;;;;;73.82;11.98;;;;;;;-144.74;100.00;63161.41;5010074;28;20022;-75
2024/01/23 08:18:45;;;;;;;111.88;14.88;;;;;;;-144.74;100.00;63161.41;4992675;28;20041;-74
2024/01/23 08:21:19;;;;;;;91.13;13.13;;;;;;;-144.74;100.00;63161.41;5012104;28;20018;-74
2024/01/23 08:23:44;;;;;;;89.55;15.65;;;;;;;-144.74;100.00;63161.41;4993957;28;20029;-74
2024/01/23 08:26:10;;;;;;;78.50;12.25;;;;;;;-144.74;100.00;63161.41;4992662;28;20037;-75
2024/01/23 08:28:35;;;;;;;90.38;12.70;;;;;;;-144.74;100.00;63161.41;4993335;28;20048;-71
2024/01/23 08:31:03;;;;;;;84.78;12.80;;;;;;;-144.74;100.00;63161.41;4991770;28;20024;-71
2024/01/23 08:33:30;;;;;;;69.78;11.70;;;;;;;-144.74;100.00;63161.41;5009518;28;20477;-70
2024/01/23 08:35:55;;;;;;;98.35;13.00;;;;;;;-144.74;100.00;63161.41;4991888;28;20057;-69
2024/01/23 08:38:21;;;;;;;92.40;13.93;;;;;;;-144.74;100.00;63161.41;4994032;28;20488;-71
2024/01/23 08:40:46;;;;;;;94.72;13.40;;;;;;;-144.74;100.00;63161.41;4993259;28;20062;-70
2024/01/23 08:43:12;;;;;;;78.75;12.60;;;;;;;-144.74;100.00;63161.41;4992493;28;20021;-70
2024/01/23 08:45:37;;;;;;;84.32;12.10;;;;;;;-144.74;100.00;63161.41;5010495;28;20042;-70
2024/01/23 08:48:03;;;;;;;92.03;13.95;;;;;;;-144.74;100.00;63161.41;4992184;28;20034;-71
2024/01/23 08:50:31;;;;;;;84.22;12.35;;;;;;;-144.74;100.00;63161.41;4993117;28;20045;-71
2024/01/23 08:52:56;;;;;;;86.47;12.77;;;;;;;-144.74;100.00;63161.41;4994003;28;20022;-71
2024/01/23 08:55:22;;;;;;;81.05;12.30;;;;;;;-144.74;100.00;63161.41;4991461;28;20034;-72
2024/01/23 08:57:47;;;;;;;90.50;13.35;;;;;;;-144.74;100.00;63161.41;4994140;28;20034;-70
2024/01/23 09:00:13;;;;;;;89.72;13.00;;;;;;;-144.74;100.00;63161.41;5010594;28;20034;-70
2024/01/23 09:02:39;;;;;;;76.50;13.10;;;;;;;-144.74;100.00;63161.41;4993598;28;20509;-71
2024/01/23 09:05:05;;;;;;;89.95;13.63;;;;;;;-144.74;100.00;63161.41;4991785;28;20041;-70
2024/01/23 09:07:30;;;;;;;81.00;12.52;;;;;;;-144.74;100.00;63161.41;4992253;28;20034;-70
2024/01/23 09:09:55;;;;;;;77.90;10.82;;;;;;;-144.74;100.00;63161.41;4993319;28;20042;-71
2024/01/23 09:12:21;;;;;;;94.15;14.02;;;;;;;-144.74;100.00;63161.41;5009618;28;20036;-70
2024/01/23 09:14:47;;;;;;;90.13;13.20;;;;;;;-144.74;100.00;63161.41;5008806;28;20098;-70
2024/01/23 09:17:13;;;;;;;94.07;12.00;;;;;;;-144.74;100.00;63161.41;5011357;28;20064;-70
2024/01/23 09:19:38;;;;;;;90.50;12.93;;;;;;;-144.74;100.00;63161.41;4988928;28;20030;-71
2024/01/23 09:22:06;;;;;;;74.93;11.25;;;;;;;-144.74;100.00;63161.41;4992607;28;20053;-71
2024/01/23 09:24:32;;;;;;;76.00;11.90;;;;;;;-144.74;100.00;63161.41;5011157;28;20034;-70
2024/01/23 09:27:01;;;;;;;75.57;12.60;;;;;;;-144.74;100.00;63161.41;4993986;28;20080;-71
2024/01/23 09:29:27;;;;;;;81.88;12.07;;;;;;;-144.74;100.00;63161.41;4993279;28;20400;-70
2024/01/23 09:31:53;;;;;;;87.65;12.93;;;;;;;-144.74;100.00;63161.41;4981926;28;20021;-71
2024/01/23 09:34:18;;;;;;;91.35;16.23;;;;;;;-144.74;100.00;63161.41;5006585;28;20030;-70
2024/01/23 09:36:43;;;;;;;91.40;13.15;;;;;;;-144.74;100.00;63161.41;4991564;28;20030;-71
2024/01/23 09:39:13;;;;;;;83.55;13.77;;;;;;;-144.74;100.00;63161.41;5007519;28;20026;-70
2024/01/23 09:41:44;;;;;;;68.65;11.98;;;;;;;-144.74;100.00;63161.41;4991857;28;20022;-70
2024/01/23 09:44:11;;;;;;;102.20;16.20;;;;;;;-144.74;100.00;63161.41;4992629;28;20042;-71
2024/01/23 09:46:37;;;;;;;80.82;11.07;;;;;;;-144.74;100.00;63161.41;4993576;28;20033;-71
2024/01/23 09:49:02;;;;;;;100.50;15.10;;;;;;;-144.74;100.00;63161.41;4991977;28;20030;-71
2024/01/23 09:51:28;;;;;;;94.63;12.45;;;;;;;-144.74;100.00;63161.41;4993558;28;20487;-71
2024/01/23 09:53:54;;;;;;;85.35;12.80;;;;;;;-144.74;100.00;63161.41;4994184;28;20089;-70
2024/01/23 09:56:20;;;;;;;80.20;14.65;;;;;;;-144.74;100.00;63161.41;5010914;28;20156;-71
2024/01/23 09:58:45;;;;;;;80.57;14.50;;;;;;;-144.74;100.00;63161.41;5006660;28;20022;-71
2024/01/23 10:01:12;;;;;;;97.32;12.60;;;;;;;-144.74;100.00;63161.41;4993015;28;20014;-71
2024/01/23 10:03:38;;;;;;;98.00;12.40;;;;;;;-144.74;100.00;63161.41;4991630;28;20022;-71
2024/01/23 10:06:04;;;;;;;111.63;13.05;;;;;;;-144.74;100.00;63161.41;4983069;28;20040;-69
2024/01/23 10:08:29;;;;;;;98.18;14.05;;;;;;;-144.74;100.00;63161.41;4991032;28;20037;-70
2024/01/23 10:10:59;;;;;;;86.07;12.15;;;;;;;-144.74;100.00;63161.41;4993649;28;20076;-70
2024/01/23 10:13:26;;;;;;;74.88;13.05;;;;;;;-144.74;100.00;63161.41;5006114;28;20141;-70
2024/01/23 10:15:54;;;;;;;92.30;15.00;;;;;;;-144.74;100.00;63161.41;4992500;28;20033;-70
2024/01/23 10:18:21;;;;;;;96.18;14.50;;;;;;;-144.74;100.00;63161.41;4992615;28;20081;-72
2024/01/23 10:20:47;;;;;;;74.57;13.32;;;;;;;-144.74;100.00;63161.41;4994333;28;20104;-71
2024/01/23 10:23:13;;;;;;;90.68;14.27;;;;;;;-144.74;100.00;63161.41;4990663;28;20026;-70
2024/01/23 10:25:39;;;;;;;81.28;13.23;;;;;;;-144.74;100.00;63161.41;4980082;28;20128;-70
2024/01/23 10:28:08;;;;;;;90.85;14.35;;;;;;;-144.74;100.00;63161.41;4994511;28;20093;-72
2024/01/23 10:30:36;;;;;;;115.65;16.90;;;;;;;-144.74;100.00;63161.41;4993987;28;20042;-71
2024/01/23 10:33:02;;;;;;;83.40;12.07;;;;;;;-144.74;100.00;63161.41;4988680;28;20077;-71
2024/01/23 10:35:27;;;;;;;59.95;10.63;;;;;;;-144.74;100.00;63161.41;4991553;28;20088;-69
2024/01/23 10:37:54;;;;;;;96.18;14.50;;;;;;;-144.74;100.00;63161.41;4992502;28;20053;-70
2024/01/23 10:40:23;;;;;;;89.57;13.85;;;;;;;-144.74;100.00;63161.41;4991731;28;20033;-72
2024/01/23 10:42:49;;;;;;;92.50;11.18;;;;;;;-144.74;100.00;63161.41;5011455;28;20084;-70
2024/01/23 10:45:17;;;;;;;92.68;11.98;;;;;;;-144.74;100.00;63161.41;4991300;28;20026;-71
2024/01/23 10:47:43;;;;;;;89.80;13.55;;;;;;;-144.74;100.00;63161.41;4987325;28;20242;-71
2024/01/23 10:50:08;;;;;;;92.05;15.55;;;;;;;-144.74;100.00;63161.41;4992385;28;20053;-70
2024/01/23 10:52:39;;;;;;;88.95;13.52;;;;;;;-144.74;100.00;63161.41;4986111;28;20057;-69
2024/01/23 10:55:06;;;;;;;80.18;11.80;;;;;;;-144.74;100.00;63161.41;4991888;28;20034;-70